sensor_id;sensor_type;location;lat;lon;timestamp;temperature;humidity
7206;DHT22;3644;53.480;10.004;2023-07-31T00:00:31;18.00;99.90
7206;DHT22;3644;53.480;10.004;2023-07-31T00:02:56;18.00;99.90
7206;DHT22;3644;53.480;10.004;2023-07-31T00:05:22;18.00;99.90
7206;DHT22;3644;53.480;10.004;2023-07-31T00:07:47;18.00;99.90
7206;DHT22;3644;53.480;10.004;2023-07-31T00:10:13;18.00;99.90
7206;DHT22;3644;53.480;10.004;2023-07-31T00:12:40;18.10;99.90
7206;DHT22;3644;53.480;10.004;2023-07-31T00:15:07;18.10;99.90
7206;DHT22;3644;53.480;10.004;2023-07-31T00:17:33;18.10;99.90
7206;DHT22;3644;53.480;10.004;2023-07-31T00:19:58;18.10;99.90
7206;DHT22;3644;53.480;10.004;2023-07-31T00:22:24;18.10;99.90
7206;DHT22;3644;53.480;10.004;2023-07-31T00:24:49;18.00;99.90
7206;DHT22;3644;53.480;10.004;2023-07-31T00:27:15;18.00;99.90
7206;DHT22;3644;53.480;10.004;2023-07-31T00:29:40;18.10;99.90
7206;DHT22;3644;53.480;10.004;2023-07-31T00:32:06;18.00;99.90
7206;DHT22;3644;53.480;10.004;2023-07-31T00:34:32;18.00;99.90
7206;DHT22;3644;53.480;10.004;2023-07-31T00:36:57;18.00;99.90
7206;DHT22;3644;53.480;10.004;2023-07-31T00:39:23;17.90;99.90
7206;DHT22;3644;53.480;10.004;2023-07-31T00:41:48;18.00;99.90
7206;DHT22;3644;53.480;10.004;2023-07-31T00:44:14;18.00;99.90
7206;DHT22;3644;53.480;10.004;2023-07-31T00:46:39;18.00;99.90
7206;DHT22;3644;53.480;10.004;2023-07-31T00:49:05;18.10;99.90
7206;DHT22;3644;53.480;10.004;2023-07-31T00:51:31;18.00;99.90
7206;DHT22;3644;53.480;10.004;2023-07-31T00:53:57;18.10;99.90
7206;DHT22;3644;53.480;10.004;2023-07-31T00:56:24;18.10;99.90
7206;DHT22;3644;53.480;10.004;2023-07-31T00:58:50;18.00;99.90
7206;DHT22;3644;53.480;10.004;2023-07-31T01:01:16;18.00;99.90
7206;DHT22;3644;53.480;10.004;2023-07-31T01:03:41;17.90;99.90
7206;DHT22;3644;53.480;10.004;2023-07-31T01:09:14;17.80;99.90
7206;DHT22;3644;53.480;10.004;2023-07-31T01:11:53;17.80;99.90
7206;DHT22;3644;53.480;10.004;2023-07-31T01:14:18;17.80;99.90
7206;DHT22;3644;53.480;10.004;2023-07-31T01:16:44;17.90;99.90
7206;DHT22;3644;53.480;10.004;2023-07-31T01:19:10;17.90;99.90
7206;DHT22;3644;53.480;10.004;2023-07-31T01:24:11;17.90;99.90
7206;DHT22;3644;53.480;10.004;2023-07-31T01:26:39;17.90;99.90
7206;DHT22;3644;53.480;10.004;2023-07-31T01:29:15;17.90;99.90
7206;DHT22;3644;53.480;10.004;2023-07-31T01:31:43;17.90;99.90
7206;DHT22;3644;53.480;10.004;2023-07-31T01:34:11;17.80;99.90
7206;DHT22;3644;53.480;10.004;2023-07-31T01:36:38;17.80;99.90
7206;DHT22;3644;53.480;10.004;2023-07-31T01:39:03;17.80;99.90
7206;DHT22;3644;53.480;10.004;2023-07-31T01:41:29;17.80;99.90
7206;DHT22;3644;53.480;10.004;2023-07-31T01:43:54;17.80;99.90
7206;DHT22;3644;53.480;10.004;2023-07-31T01:46:20;17.90;99.90
7206;DHT22;3644;53.480;10.004;2023-07-31T01:48:45;17.80;99.90
7206;DHT22;3644;53.480;10.004;2023-07-31T01:51:11;17.80;99.90
7206;DHT22;3644;53.480;10.004;2023-07-31T01:53:37;17.90;99.90
7206;DHT22;3644;53.480;10.004;2023-07-31T01:56:02;17.80;99.90
7206;DHT22;3644;53.480;10.004;2023-07-31T01:58:28;17.80;99.90
7206;DHT22;3644;53.480;10.004;2023-07-31T02:00:53;17.80;99.90
7206;DHT22;3644;53.480;10.004;2023-07-31T02:03:19;17.80;99.90
7206;DHT22;3644;53.480;10.004;2023-07-31T02:05:48;17.80;99.90
7206;DHT22;3644;53.480;10.004;2023-07-31T02:08:14;17.90;99.90
7206;DHT22;3644;53.480;10.004;2023-07-31T02:10:40;17.80;99.90
7206;DHT22;3644;53.480;10.004;2023-07-31T02:13:05;17.80;99.90
7206;DHT22;3644;53.480;10.004;2023-07-31T02:15:31;17.90;99.90
7206;DHT22;3644;53.480;10.004;2023-07-31T02:17:56;17.90;99.90
7206;DHT22;3644;53.480;10.004;2023-07-31T02:20:22;17.90;99.90
7206;DHT22;3644;53.480;10.004;2023-07-31T02:22:47;18.00;99.90
7206;DHT22;3644;53.480;10.004;2023-07-31T02:25:13;17.90;99.90
7206;DHT22;3644;53.480;10.004;2023-07-31T02:27:39;17.90;99.90
7206;DHT22;3644;53.480;10.004;2023-07-31T02:30:05;17.90;99.90
7206;DHT22;3644;53.480;10.004;2023-07-31T02:32:30;18.00;99.90
7206;DHT22;3644;53.480;10.004;2023-07-31T02:34:56;18.00;99.90
7206;DHT22;3644;53.480;10.004;2023-07-31T02:37:21;17.90;99.90
7206;DHT22;3644;53.480;10.004;2023-07-31T02:39:47;18.00;99.90
7206;DHT22;3644;53.480;10.004;2023-07-31T02:42:13;17.90;99.90
7206;DHT22;3644;53.480;10.004;2023-07-31T02:44:38;17.90;99.90
7206;DHT22;3644;53.480;10.004;2023-07-31T02:47:04;17.90;99.90
7206;DHT22;3644;53.480;10.004;2023-07-31T02:49:30;18.00;99.90
7206;DHT22;3644;53.480;10.004;2023-07-31T02:51:55;18.00;99.90
7206;DHT22;3644;53.480;10.004;2023-07-31T02:54:20;18.00;99.90
7206;DHT22;3644;53.480;10.004;2023-07-31T02:56:47;18.00;99.90
7206;DHT22;3644;53.480;10.004;2023-07-31T02:59:13;18.10;99.90
7206;DHT22;3644;53.480;10.004;2023-07-31T03:01:38;18.10;99.90
7206;DHT22;3644;53.480;10.004;2023-07-31T03:04:04;18.10;99.90
7206;DHT22;3644;53.480;10.004;2023-07-31T03:06:29;18.10;99.90
7206;DHT22;3644;53.480;10.004;2023-07-31T03:08:55;18.10;99.90
7206;DHT22;3644;53.480;10.004;2023-07-31T03:11:20;18.10;99.90
7206;DHT22;3644;53.480;10.004;2023-07-31T03:13:46;18.00;99.90
7206;DHT22;3644;53.480;10.004;2023-07-31T03:16:11;18.00;99.90
7206;DHT22;3644;53.480;10.004;2023-07-31T03:18:37;18.00;99.90
7206;DHT22;3644;53.480;10.004;2023-07-31T03:21:02;18.10;99.90
7206;DHT22;3644;53.480;10.004;2023-07-31T03:23:29;18.10;99.90
7206;DHT22;3644;53.480;10.004;2023-07-31T03:26:02;18.10;99.90
7206;DHT22;3644;53.480;10.004;2023-07-31T03:28:29;18.10;99.90
7206;DHT22;3644;53.480;10.004;2023-07-31T03:30:55;18.10;99.90
7206;DHT22;3644;53.480;10.004;2023-07-31T03:33:20;18.10;99.90
7206;DHT22;3644;53.480;10.004;2023-07-31T03:35:46;18.10;99.90
7206;DHT22;3644;53.480;10.004;2023-07-31T03:38:12;18.10;99.90
7206;DHT22;3644;53.480;10.004;2023-07-31T03:40:37;18.20;99.90
7206;DHT22;3644;53.480;10.004;2023-07-31T03:43:02;18.20;99.90
7206;DHT22;3644;53.480;10.004;2023-07-31T03:45:28;18.20;99.90
7206;DHT22;3644;53.480;10.004;2023-07-31T03:47:54;18.20;99.90
7206;DHT22;3644;53.480;10.004;2023-07-31T03:50:20;18.20;99.90
7206;DHT22;3644;53.480;10.004;2023-07-31T03:52:46;18.20;99.90
7206;DHT22;3644;53.480;10.004;2023-07-31T03:55:11;18.20;99.90
7206;DHT22;3644;53.480;10.004;2023-07-31T03:57:37;18.20;99.90
7206;DHT22;3644;53.480;10.004;2023-07-31T04:00:03;18.00;99.90
7206;DHT22;3644;53.480;10.004;2023-07-31T04:02:28;18.00;99.90
7206;DHT22;3644;53.480;10.004;2023-07-31T04:04:54;18.10;99.90
7206;DHT22;3644;53.480;10.004;2023-07-31T04:07:19;18.10;99.90
7206;DHT22;3644;53.480;10.004;2023-07-31T04:09:45;18.10;99.90
7206;DHT22;3644;53.480;10.004;2023-07-31T04:12:10;18.20;99.90
7206;DHT22;3644;53.480;10.004;2023-07-31T04:14:36;18.20;99.90
7206;DHT22;3644;53.480;10.004;2023-07-31T04:17:02;18.10;99.90
7206;DHT22;3644;53.480;10.004;2023-07-31T04:19:28;18.10;99.90
7206;DHT22;3644;53.480;10.004;2023-07-31T04:21:53;18.30;99.90
7206;DHT22;3644;53.480;10.004;2023-07-31T04:24:18;18.20;99.90
7206;DHT22;3644;53.480;10.004;2023-07-31T04:26:50;18.30;99.90
7206;DHT22;3644;53.480;10.004;2023-07-31T04:29:15;18.30;99.90
7206;DHT22;3644;53.480;10.004;2023-07-31T04:31:41;18.20;99.90
7206;DHT22;3644;53.480;10.004;2023-07-31T04:34:06;18.20;99.90
7206;DHT22;3644;53.480;10.004;2023-07-31T04:36:33;18.20;99.90
7206;DHT22;3644;53.480;10.004;2023-07-31T04:38:59;18.20;99.90
7206;DHT22;3644;53.480;10.004;2023-07-31T04:41:24;18.10;99.90
7206;DHT22;3644;53.480;10.004;2023-07-31T04:43:50;18.20;99.90
7206;DHT22;3644;53.480;10.004;2023-07-31T04:46:15;18.20;99.90
7206;DHT22;3644;53.480;10.004;2023-07-31T04:48:42;18.20;99.90
7206;DHT22;3644;53.480;10.004;2023-07-31T04:51:07;18.20;99.90
7206;DHT22;3644;53.480;10.004;2023-07-31T04:53:33;18.30;99.90
7206;DHT22;3644;53.480;10.004;2023-07-31T04:55:58;18.40;99.90
7206;DHT22;3644;53.480;10.004;2023-07-31T04:58:24;18.40;99.90
7206;DHT22;3644;53.480;10.004;2023-07-31T05:00:49;18.50;99.90
7206;DHT22;3644;53.480;10.004;2023-07-31T05:03:15;18.60;99.90
7206;DHT22;3644;53.480;10.004;2023-07-31T05:05:40;18.60;99.90
7206;DHT22;3644;53.480;10.004;2023-07-31T05:08:06;18.70;99.90
7206;DHT22;3644;53.480;10.004;2023-07-31T05:10:31;18.70;99.90
7206;DHT22;3644;53.480;10.004;2023-07-31T05:12:57;18.60;99.90
7206;DHT22;3644;53.480;10.004;2023-07-31T05:15:23;18.60;99.90
7206;DHT22;3644;53.480;10.004;2023-07-31T05:17:48;18.70;99.90
7206;DHT22;3644;53.480;10.004;2023-07-31T05:20:14;18.50;99.90
7206;DHT22;3644;53.480;10.004;2023-07-31T05:22:40;18.40;99.90
7206;DHT22;3644;53.480;10.004;2023-07-31T05:25:06;18.30;99.90
7206;DHT22;3644;53.480;10.004;2023-07-31T05:27:32;18.10;99.90
7206;DHT22;3644;53.480;10.004;2023-07-31T05:29:58;18.20;99.90
7206;DHT22;3644;53.480;10.004;2023-07-31T05:32:23;18.20;99.90
7206;DHT22;3644;53.480;10.004;2023-07-31T05:34:51;18.40;99.90
7206;DHT22;3644;53.480;10.004;2023-07-31T05:37:17;18.40;99.90
7206;DHT22;3644;53.480;10.004;2023-07-31T05:39:43;18.30;99.90
7206;DHT22;3644;53.480;10.004;2023-07-31T05:42:08;18.20;99.90
7206;DHT22;3644;53.480;10.004;2023-07-31T05:44:34;18.30;99.90
7206;DHT22;3644;53.480;10.004;2023-07-31T05:46:59;18.50;99.90
7206;DHT22;3644;53.480;10.004;2023-07-31T05:49:25;18.60;99.90
7206;DHT22;3644;53.480;10.004;2023-07-31T05:51:51;18.70;99.90
7206;DHT22;3644;53.480;10.004;2023-07-31T05:54:16;18.60;99.90
7206;DHT22;3644;53.480;10.004;2023-07-31T05:56:42;18.60;99.90
7206;DHT22;3644;53.480;10.004;2023-07-31T05:59:09;18.60;99.90
7206;DHT22;3644;53.480;10.004;2023-07-31T06:01:35;18.70;99.90
7206;DHT22;3644;53.480;10.004;2023-07-31T06:04:00;18.80;99.90
7206;DHT22;3644;53.480;10.004;2023-07-31T06:06:27;18.70;99.90
7206;DHT22;3644;53.480;10.004;2023-07-31T06:08:52;18.80;99.90
7206;DHT22;3644;53.480;10.004;2023-07-31T06:11:19;18.80;99.90
7206;DHT22;3644;53.480;10.004;2023-07-31T06:13:45;18.90;99.90
7206;DHT22;3644;53.480;10.004;2023-07-31T06:16:12;18.90;99.90
7206;DHT22;3644;53.480;10.004;2023-07-31T06:18:37;19.00;99.90
7206;DHT22;3644;53.480;10.004;2023-07-31T06:21:03;19.20;99.90
7206;DHT22;3644;53.480;10.004;2023-07-31T06:23:28;19.10;99.90
7206;DHT22;3644;53.480;10.004;2023-07-31T06:25:54;19.00;99.90
7206;DHT22;3644;53.480;10.004;2023-07-31T06:28:19;19.10;99.90
7206;DHT22;3644;53.480;10.004;2023-07-31T06:30:45;19.10;99.90
7206;DHT22;3644;53.480;10.004;2023-07-31T06:33:10;19.20;99.90
7206;DHT22;3644;53.480;10.004;2023-07-31T06:35:36;19.30;99.90
7206;DHT22;3644;53.480;10.004;2023-07-31T06:38:01;19.10;99.90
7206;DHT22;3644;53.480;10.004;2023-07-31T06:40:28;19.00;99.90
7206;DHT22;3644;53.480;10.004;2023-07-31T06:42:53;19.20;99.90
7206;DHT22;3644;53.480;10.004;2023-07-31T06:45:19;19.20;99.90
7206;DHT22;3644;53.480;10.004;2023-07-31T06:47:45;19.30;99.90
7206;DHT22;3644;53.480;10.004;2023-07-31T06:50:10;19.30;99.90
7206;DHT22;3644;53.480;10.004;2023-07-31T06:52:36;19.40;99.90
7206;DHT22;3644;53.480;10.004;2023-07-31T06:55:18;19.50;99.90
7206;DHT22;3644;53.480;10.004;2023-07-31T06:57:47;19.50;99.90
7206;DHT22;3644;53.480;10.004;2023-07-31T07:00:13;19.60;99.90
7206;DHT22;3644;53.480;10.004;2023-07-31T07:02:39;19.60;99.90
7206;DHT22;3644;53.480;10.004;2023-07-31T07:05:06;19.60;99.90
7206;DHT22;3644;53.480;10.004;2023-07-31T07:07:32;19.70;99.90
7206;DHT22;3644;53.480;10.004;2023-07-31T07:09:57;19.60;99.90
7206;DHT22;3644;53.480;10.004;2023-07-31T07:12:25;19.60;99.90
7206;DHT22;3644;53.480;10.004;2023-07-31T07:14:50;19.50;99.90
7206;DHT22;3644;53.480;10.004;2023-07-31T07:17:21;19.50;99.90
7206;DHT22;3644;53.480;10.004;2023-07-31T07:19:47;19.40;99.90
7206;DHT22;3644;53.480;10.004;2023-07-31T07:22:13;19.30;99.90
7206;DHT22;3644;53.480;10.004;2023-07-31T07:24:39;19.40;99.90
7206;DHT22;3644;53.480;10.004;2023-07-31T07:27:04;19.50;99.90
7206;DHT22;3644;53.480;10.004;2023-07-31T07:29:30;19.50;99.90
7206;DHT22;3644;53.480;10.004;2023-07-31T07:31:55;19.60;99.90
7206;DHT22;3644;53.480;10.004;2023-07-31T07:34:26;19.60;99.90
7206;DHT22;3644;53.480;10.004;2023-07-31T07:36:52;19.70;99.90
7206;DHT22;3644;53.480;10.004;2023-07-31T07:39:17;19.80;99.90
7206;DHT22;3644;53.480;10.004;2023-07-31T07:41:42;19.90;99.90
7206;DHT22;3644;53.480;10.004;2023-07-31T07:44:08;19.90;99.90
7206;DHT22;3644;53.480;10.004;2023-07-31T07:46:33;20.10;99.90
7206;DHT22;3644;53.480;10.004;2023-07-31T07:48:59;20.20;99.90
7206;DHT22;3644;53.480;10.004;2023-07-31T07:51:25;20.10;99.90
7206;DHT22;3644;53.480;10.004;2023-07-31T07:53:50;20.20;99.90
7206;DHT22;3644;53.480;10.004;2023-07-31T07:56:16;20.30;99.90
7206;DHT22;3644;53.480;10.004;2023-07-31T07:58:41;20.40;99.90
7206;DHT22;3644;53.480;10.004;2023-07-31T08:01:07;20.50;99.90
7206;DHT22;3644;53.480;10.004;2023-07-31T08:03:32;20.60;99.90
7206;DHT22;3644;53.480;10.004;2023-07-31T08:05:59;20.60;99.90
7206;DHT22;3644;53.480;10.004;2023-07-31T08:08:24;20.60;99.90
7206;DHT22;3644;53.480;10.004;2023-07-31T08:10:50;20.70;99.90
7206;DHT22;3644;53.480;10.004;2023-07-31T08:13:15;20.70;99.90
7206;DHT22;3644;53.480;10.004;2023-07-31T08:15:41;20.70;99.90
7206;DHT22;3644;53.480;10.004;2023-07-31T08:18:07;20.80;99.90
7206;DHT22;3644;53.480;10.004;2023-07-31T08:20:33;20.80;99.90
7206;DHT22;3644;53.480;10.004;2023-07-31T08:22:58;20.90;99.90
7206;DHT22;3644;53.480;10.004;2023-07-31T08:25:25;20.90;99.90
7206;DHT22;3644;53.480;10.004;2023-07-31T08:27:50;20.90;99.90
7206;DHT22;3644;53.480;10.004;2023-07-31T08:30:18;20.80;99.90
7206;DHT22;3644;53.480;10.004;2023-07-31T08:32:44;20.80;99.90
7206;DHT22;3644;53.480;10.004;2023-07-31T08:35:10;20.90;99.90
7206;DHT22;3644;53.480;10.004;2023-07-31T08:37:36;21.00;99.90
7206;DHT22;3644;53.480;10.004;2023-07-31T08:40:01;21.00;99.90
7206;DHT22;3644;53.480;10.004;2023-07-31T08:42:27;21.10;99.90
7206;DHT22;3644;53.480;10.004;2023-07-31T08:44:55;21.20;99.90
7206;DHT22;3644;53.480;10.004;2023-07-31T08:47:21;21.10;99.90
7206;DHT22;3644;53.480;10.004;2023-07-31T08:49:47;21.30;99.90
7206;DHT22;3644;53.480;10.004;2023-07-31T08:52:13;21.30;99.90
7206;DHT22;3644;53.480;10.004;2023-07-31T08:54:39;21.30;99.90
7206;DHT22;3644;53.480;10.004;2023-07-31T08:57:05;21.30;99.90
7206;DHT22;3644;53.480;10.004;2023-07-31T08:59:34;21.40;99.90
7206;DHT22;3644;53.480;10.004;2023-07-31T09:02:05;21.40;99.90
7206;DHT22;3644;53.480;10.004;2023-07-31T09:04:32;21.50;99.90
7206;DHT22;3644;53.480;10.004;2023-07-31T09:07:00;21.50;99.90
7206;DHT22;3644;53.480;10.004;2023-07-31T09:09:26;21.50;99.90
7206;DHT22;3644;53.480;10.004;2023-07-31T09:11:52;21.50;99.90
7206;DHT22;3644;53.480;10.004;2023-07-31T09:14:18;21.50;99.90
7206;DHT22;3644;53.480;10.004;2023-07-31T09:16:55;21.50;99.90
7206;DHT22;3644;53.480;10.004;2023-07-31T09:19:34;21.50;99.90
7206;DHT22;3644;53.480;10.004;2023-07-31T09:22:03;21.50;99.90
7206;DHT22;3644;53.480;10.004;2023-07-31T09:24:29;21.40;99.90
7206;DHT22;3644;53.480;10.004;2023-07-31T09:26:57;21.40;99.90
7206;DHT22;3644;53.480;10.004;2023-07-31T09:29:24;21.40;99.90
7206;DHT22;3644;53.480;10.004;2023-07-31T09:31:50;21.40;99.90
7206;DHT22;3644;53.480;10.004;2023-07-31T09:34:16;21.50;99.90
7206;DHT22;3644;53.480;10.004;2023-07-31T09:36:42;21.40;99.90
7206;DHT22;3644;53.480;10.004;2023-07-31T09:39:12;21.40;99.90
7206;DHT22;3644;53.480;10.004;2023-07-31T09:41:42;21.40;99.90
7206;DHT22;3644;53.480;10.004;2023-07-31T09:44:09;21.50;99.90
7206;DHT22;3644;53.480;10.004;2023-07-31T09:46:37;21.40;99.90
7206;DHT22;3644;53.480;10.004;2023-07-31T09:49:10;21.40;99.90
7206;DHT22;3644;53.480;10.004;2023-07-31T09:51:41;21.40;99.90
7206;DHT22;3644;53.480;10.004;2023-07-31T09:54:14;21.40;99.90
7206;DHT22;3644;53.480;10.004;2023-07-31T09:56:48;21.40;99.90
7206;DHT22;3644;53.480;10.004;2023-07-31T09:59:18;21.40;99.90
7206;DHT22;3644;53.480;10.004;2023-07-31T10:01:45;21.30;99.90
7206;DHT22;3644;53.480;10.004;2023-07-31T10:04:12;21.30;99.90
7206;DHT22;3644;53.480;10.004;2023-07-31T10:06:39;21.20;99.90
7206;DHT22;3644;53.480;10.004;2023-07-31T10:09:07;21.00;99.90
7206;DHT22;3644;53.480;10.004;2023-07-31T10:11:46;21.00;99.90
7206;DHT22;3644;53.480;10.004;2023-07-31T10:14:19;20.90;99.90
7206;DHT22;3644;53.480;10.004;2023-07-31T10:16:45;20.90;99.90
7206;DHT22;3644;53.480;10.004;2023-07-31T10:19:11;20.80;99.90
7206;DHT22;3644;53.480;10.004;2023-07-31T10:21:37;21.00;99.90
7206;DHT22;3644;53.480;10.004;2023-07-31T10:24:04;21.00;99.90
7206;DHT22;3644;53.480;10.004;2023-07-31T10:26:31;20.70;99.90
7206;DHT22;3644;53.480;10.004;2023-07-31T10:28:58;20.80;99.90
7206;DHT22;3644;53.480;10.004;2023-07-31T10:31:24;20.80;99.90
7206;DHT22;3644;53.480;10.004;2023-07-31T10:33:51;20.70;99.90
7206;DHT22;3644;53.480;10.004;2023-07-31T10:36:20;20.70;99.90
7206;DHT22;3644;53.480;10.004;2023-07-31T10:38:48;20.50;99.90
7206;DHT22;3644;53.480;10.004;2023-07-31T10:41:14;20.60;99.90
7206;DHT22;3644;53.480;10.004;2023-07-31T10:43:40;20.70;99.90
7206;DHT22;3644;53.480;10.004;2023-07-31T10:46:12;20.70;99.90
7206;DHT22;3644;53.480;10.004;2023-07-31T10:48:39;20.90;99.90
7206;DHT22;3644;53.480;10.004;2023-07-31T10:51:08;21.00;99.90
7206;DHT22;3644;53.480;10.004;2023-07-31T10:53:40;20.80;99.90
7206;DHT22;3644;53.480;10.004;2023-07-31T10:56:07;21.00;99.90
7206;DHT22;3644;53.480;10.004;2023-07-31T10:58:34;21.10;99.90
7206;DHT22;3644;53.480;10.004;2023-07-31T11:01:02;21.30;99.90
7206;DHT22;3644;53.480;10.004;2023-07-31T11:03:45;21.60;99.90
7206;DHT22;3644;53.480;10.004;2023-07-31T11:06:14;21.80;99.90
7206;DHT22;3644;53.480;10.004;2023-07-31T11:08:44;21.90;99.90
7206;DHT22;3644;53.480;10.004;2023-07-31T11:11:12;21.90;99.90
7206;DHT22;3644;53.480;10.004;2023-07-31T11:13:50;22.10;99.90
7206;DHT22;3644;53.480;10.004;2023-07-31T11:16:19;22.00;99.90
7206;DHT22;3644;53.480;10.004;2023-07-31T11:18:46;21.90;99.90
7206;DHT22;3644;53.480;10.004;2023-07-31T11:21:21;21.90;99.90
7206;DHT22;3644;53.480;10.004;2023-07-31T11:23:48;21.80;99.90
7206;DHT22;3644;53.480;10.004;2023-07-31T11:26:14;21.90;99.90
7206;DHT22;3644;53.480;10.004;2023-07-31T11:28:40;22.00;99.90
7206;DHT22;3644;53.480;10.004;2023-07-31T11:31:09;22.00;99.90
7206;DHT22;3644;53.480;10.004;2023-07-31T11:33:35;21.80;99.90
7206;DHT22;3644;53.480;10.004;2023-07-31T11:36:00;21.80;99.90
7206;DHT22;3644;53.480;10.004;2023-07-31T11:38:29;21.90;99.90
7206;DHT22;3644;53.480;10.004;2023-07-31T11:40:58;21.90;99.90
7206;DHT22;3644;53.480;10.004;2023-07-31T11:43:24;22.00;99.90
7206;DHT22;3644;53.480;10.004;2023-07-31T11:45:55;22.00;99.90
7206;DHT22;3644;53.480;10.004;2023-07-31T11:48:31;22.00;99.90
7206;DHT22;3644;53.480;10.004;2023-07-31T11:51:01;22.00;99.90
7206;DHT22;3644;53.480;10.004;2023-07-31T11:53:45;22.10;99.90
7206;DHT22;3644;53.480;10.004;2023-07-31T11:56:14;22.20;99.90
7206;DHT22;3644;53.480;10.004;2023-07-31T11:58:43;22.40;99.90
7206;DHT22;3644;53.480;10.004;2023-07-31T12:01:10;22.30;99.90
7206;DHT22;3644;53.480;10.004;2023-07-31T12:03:36;22.30;99.90
7206;DHT22;3644;53.480;10.004;2023-07-31T12:06:02;22.20;99.90
7206;DHT22;3644;53.480;10.004;2023-07-31T12:08:27;22.10;99.90
7206;DHT22;3644;53.480;10.004;2023-07-31T12:10:54;22.00;99.90
7206;DHT22;3644;53.480;10.004;2023-07-31T12:13:25;21.90;99.90
7206;DHT22;3644;53.480;10.004;2023-07-31T12:16:01;21.90;99.90
7206;DHT22;3644;53.480;10.004;2023-07-31T12:18:29;21.90;99.90
7206;DHT22;3644;53.480;10.004;2023-07-31T12:20:59;22.00;99.90
7206;DHT22;3644;53.480;10.004;2023-07-31T12:23:28;22.00;99.90
7206;DHT22;3644;53.480;10.004;2023-07-31T12:26:10;22.00;99.90
7206;DHT22;3644;53.480;10.004;2023-07-31T12:28:37;22.10;99.90
7206;DHT22;3644;53.480;10.004;2023-07-31T12:31:04;22.10;99.90
7206;DHT22;3644;53.480;10.004;2023-07-31T12:33:31;22.10;99.90
7206;DHT22;3644;53.480;10.004;2023-07-31T12:35:58;22.10;99.90
7206;DHT22;3644;53.480;10.004;2023-07-31T12:38:23;22.00;99.90
7206;DHT22;3644;53.480;10.004;2023-07-31T12:40:49;22.10;99.90
7206;DHT22;3644;53.480;10.004;2023-07-31T12:43:15;22.20;99.90
7206;DHT22;3644;53.480;10.004;2023-07-31T12:45:41;22.30;99.90
7206;DHT22;3644;53.480;10.004;2023-07-31T12:48:06;22.40;99.90
7206;DHT22;3644;53.480;10.004;2023-07-31T12:50:32;22.40;99.90
7206;DHT22;3644;53.480;10.004;2023-07-31T12:52:58;22.40;99.90
7206;DHT22;3644;53.480;10.004;2023-07-31T12:55:23;22.40;99.90
7206;DHT22;3644;53.480;10.004;2023-07-31T12:57:50;22.50;99.90
7206;DHT22;3644;53.480;10.004;2023-07-31T13:00:16;22.50;99.90
7206;DHT22;3644;53.480;10.004;2023-07-31T13:02:41;22.40;99.90
7206;DHT22;3644;53.480;10.004;2023-07-31T13:05:07;22.40;99.90
7206;DHT22;3644;53.480;10.004;2023-07-31T13:07:33;22.50;99.90
7206;DHT22;3644;53.480;10.004;2023-07-31T13:09:59;22.60;99.90
7206;DHT22;3644;53.480;10.004;2023-07-31T13:12:25;22.60;99.90
7206;DHT22;3644;53.480;10.004;2023-07-31T13:14:51;22.60;99.90
7206;DHT22;3644;53.480;10.004;2023-07-31T13:17:16;22.60;99.90
7206;DHT22;3644;53.480;10.004;2023-07-31T13:19:43;22.60;99.90
7206;DHT22;3644;53.480;10.004;2023-07-31T13:22:08;22.60;99.90
7206;DHT22;3644;53.480;10.004;2023-07-31T13:24:34;22.50;99.90
7206;DHT22;3644;53.480;10.004;2023-07-31T13:26:59;22.40;99.90
7206;DHT22;3644;53.480;10.004;2023-07-31T13:29:25;22.40;99.90
7206;DHT22;3644;53.480;10.004;2023-07-31T13:31:51;22.30;99.90
7206;DHT22;3644;53.480;10.004;2023-07-31T13:34:17;22.40;99.90
7206;DHT22;3644;53.480;10.004;2023-07-31T13:36:43;22.40;99.90
7206;DHT22;3644;53.480;10.004;2023-07-31T13:39:08;22.50;99.90
7206;DHT22;3644;53.480;10.004;2023-07-31T13:41:34;22.50;99.90
7206;DHT22;3644;53.480;10.004;2023-07-31T13:43:59;22.40;99.90
7206;DHT22;3644;53.480;10.004;2023-07-31T13:46:24;22.60;99.90
7206;DHT22;3644;53.480;10.004;2023-07-31T13:48:51;22.50;99.90
7206;DHT22;3644;53.480;10.004;2023-07-31T13:51:20;22.70;99.90
7206;DHT22;3644;53.480;10.004;2023-07-31T13:53:45;22.80;99.90
7206;DHT22;3644;53.480;10.004;2023-07-31T13:56:11;22.90;99.90
7206;DHT22;3644;53.480;10.004;2023-07-31T13:58:36;23.00;99.90
7206;DHT22;3644;53.480;10.004;2023-07-31T14:01:01;23.10;99.90
7206;DHT22;3644;53.480;10.004;2023-07-31T14:03:28;23.10;99.90
7206;DHT22;3644;53.480;10.004;2023-07-31T14:05:54;23.20;99.90
7206;DHT22;3644;53.480;10.004;2023-07-31T14:08:21;23.20;99.90
7206;DHT22;3644;53.480;10.004;2023-07-31T14:10:46;23.10;99.90
7206;DHT22;3644;53.480;10.004;2023-07-31T14:13:11;23.00;99.90
7206;DHT22;3644;53.480;10.004;2023-07-31T14:15:37;23.00;99.90
7206;DHT22;3644;53.480;10.004;2023-07-31T14:18:02;22.90;99.90
7206;DHT22;3644;53.480;10.004;2023-07-31T14:20:29;22.90;99.90
7206;DHT22;3644;53.480;10.004;2023-07-31T14:22:55;22.70;99.90
7206;DHT22;3644;53.480;10.004;2023-07-31T14:25:20;22.60;99.90
7206;DHT22;3644;53.480;10.004;2023-07-31T14:27:46;22.60;99.90
7206;DHT22;3644;53.480;10.004;2023-07-31T14:30:12;22.60;99.90
7206;DHT22;3644;53.480;10.004;2023-07-31T14:32:37;22.50;99.90
7206;DHT22;3644;53.480;10.004;2023-07-31T14:35:03;22.40;99.90
7206;DHT22;3644;53.480;10.004;2023-07-31T14:37:40;22.40;99.90
7206;DHT22;3644;53.480;10.004;2023-07-31T14:40:06;22.40;99.90
7206;DHT22;3644;53.480;10.004;2023-07-31T14:42:32;22.40;99.90
7206;DHT22;3644;53.480;10.004;2023-07-31T14:44:57;22.40;99.90
7206;DHT22;3644;53.480;10.004;2023-07-31T14:47:23;22.40;99.90
7206;DHT22;3644;53.480;10.004;2023-07-31T14:49:48;22.40;99.90
7206;DHT22;3644;53.480;10.004;2023-07-31T14:52:14;22.30;99.90
7206;DHT22;3644;53.480;10.004;2023-07-31T14:54:40;22.40;99.90
7206;DHT22;3644;53.480;10.004;2023-07-31T14:57:05;22.30;99.90
7206;DHT22;3644;53.480;10.004;2023-07-31T14:59:31;22.40;99.90
7206;DHT22;3644;53.480;10.004;2023-07-31T15:01:56;22.20;99.90
7206;DHT22;3644;53.480;10.004;2023-07-31T15:04:22;22.30;99.90
7206;DHT22;3644;53.480;10.004;2023-07-31T15:06:49;22.30;99.90
7206;DHT22;3644;53.480;10.004;2023-07-31T15:09:15;22.20;99.90
7206;DHT22;3644;53.480;10.004;2023-07-31T15:11:40;22.30;99.90
7206;DHT22;3644;53.480;10.004;2023-07-31T15:14:06;22.10;99.90
7206;DHT22;3644;53.480;10.004;2023-07-31T15:16:31;22.20;99.90
7206;DHT22;3644;53.480;10.004;2023-07-31T15:18:57;22.00;99.90
7206;DHT22;3644;53.480;10.004;2023-07-31T15:21:22;22.00;99.90
7206;DHT22;3644;53.480;10.004;2023-07-31T15:23:48;21.90;99.90
7206;DHT22;3644;53.480;10.004;2023-07-31T15:26:13;21.80;99.90
7206;DHT22;3644;53.480;10.004;2023-07-31T15:28:39;21.70;99.90
7206;DHT22;3644;53.480;10.004;2023-07-31T15:31:05;21.70;99.90
7206;DHT22;3644;53.480;10.004;2023-07-31T15:33:30;21.90;99.90
7206;DHT22;3644;53.480;10.004;2023-07-31T15:35:56;22.00;99.90
7206;DHT22;3644;53.480;10.004;2023-07-31T15:38:23;21.90;99.90
7206;DHT22;3644;53.480;10.004;2023-07-31T15:40:48;22.00;99.90
7206;DHT22;3644;53.480;10.004;2023-07-31T15:43:15;21.90;99.90
7206;DHT22;3644;53.480;10.004;2023-07-31T15:45:41;22.00;99.90